Accueil
METAR-TAF:

METAR-TAF

Aéroports :

Aéroport Michel-Pouliot de Gaspé

Gaspé, Québec, Canada

latitude: 48-46N, longitude: 064-29W, altitude: 33 m

Observation

Le bulletin a été fait il y a 35 minutes, à 09:00 UTC
Vent 10 kt de ouest
Température -13°C
Humidité 56%
Pression 1024 hPa
Visibilité: 24.1 km
Ciel clair

METAR: CYGP 230900Z 28010KT 15SM SKC M13/M20 A3024 RMK SLP244

Heure: 04:35 (09:35 UTC)

Prévision

Le bulletin a été fait il y a 1 heure et 55 minutes, à 07:40 UTC
Prévision valable du 23 à 08 UTC au 23 à 20 UTC
Vent 10 kt de ouest
Visibilité: 10 km
Ciel clair

TAF: CYGP 230740Z 2308/2320 27010KT P6SM SKC RMK NXT FCST BY 231400Z

Observations et prévisions météorologiques de plus de 4000 aéroports (messages METAR et TAF).

Les stations disponibles sont représentées par des disques jaunes et rouges sur la carte.

Passer la souris dessus pour voir le nom de la station.

Cliquer dessus pour voir les observations et prévisions météorologiques.

Pour changer de carte: cliquez sur les boutons verts avec une croix noire pour zoomer, sur le bouton vert avec un tiret pour effectuer un zoom arrière, ou sur les flèches vertes pour les cartes adjacentes.


METAR-TAF: